Time;durP1;ratioP1;P1;durP2;ratioP2;P2;SDS_P1;SDS_P2;PMS_P1;PMS_P2;Temp;Humidity;BMP_temperature;BMP_pressure;BME280_temperature;BME280_humidity;BME280_pressure;Samples;Min_cycle;Max_cycle;Signal;HPM_P1;HPM_P2
2023/06/24 13:02:18;;;;;;;1.85;0.73;;;;;;;29.57;100.00;101461.78;5086956;27;20746;-53
2023/06/24 13:04:44;;;;;;;3.53;0.50;;;;;;;30.12;100.00;101461.22;5056560;28;20369;-56
2023/06/24 13:07:09;;;;;;;0.95;0.35;;;;;;;30.59;98.03;101459.34;5054508;28;20033;-55
2023/06/24 13:09:35;;;;;;;1.95;0.50;;;;;;;31.44;95.18;101459.84;5052650;28;20507;-60
2023/06/24 13:12:00;;;;;;;1.25;0.28;;;;;;;32.72;92.56;101445.69;5043835;28;20033;-51
2023/06/24 13:14:27;;;;;;;0.85;0.60;;;;;;;33.13;86.42;101450.03;5050864;28;20115;-62
2023/06/24 13:16:53;;;;;;;0.10;0.10;;;;;;;32.58;85.99;101447.75;5049438;28;20374;-56
2023/06/24 13:19:19;;;;;;;2.05;0.45;;;;;;;32.34;86.77;101451.63;5045075;28;20029;-55
2023/06/24 13:21:44;;;;;;;0.32;0.32;;;;;;;32.28;86.02;101446.59;5053898;28;20071;-53
2023/06/24 13:24:09;;;;;;;0.65;0.17;;;;;;;31.98;87.10;101445.44;5055075;28;20044;-59
2023/06/24 13:26:35;;;;;;;1.90;0.30;;;;;;;31.78;85.81;101439.31;5052889;28;20367;-60
2023/06/24 13:29:00;;;;;;;0.40;0.40;;;;;;;31.84;87.16;101437.25;5054370;28;20543;-56
2023/06/24 13:31:25;;;;;;;0.45;0.20;;;;;;;32.01;87.08;101440.16;5045900;28;20029;-58
2023/06/24 13:33:51;;;;;;;0.20;0.20;;;;;;;32.32;84.77;101428.34;5053887;28;20354;-61
2023/06/24 13:36:35;;;;;;;2.63;1.45;;;;;;;31.99;82.59;101434.16;5051215;28;20817;-58
2023/06/24 13:39:04;;;;;;;0.85;0.40;;;;;;;31.87;84.43;101431.94;5049529;28;20610;-58
2023/06/24 13:41:31;;;;;;;0.20;0.17;;;;;;;31.37;86.24;101436.69;5049166;28;20094;-55
2023/06/24 13:43:57;;;;;;;0.80;0.10;;;;;;;31.31;87.19;101430.50;5053742;28;20124;-55
2023/06/24 13:46:23;;;;;;;0.60;0.20;;;;;;;31.29;85.96;101425.34;5050220;28;20032;-50
2023/06/24 13:48:49;;;;;;;0.55;0.45;;;;;;;31.17;86.55;101424.25;5055100;28;20029;-55
2023/06/24 13:51:15;;;;;;;0.82;0.63;;;;;;;31.02;84.39;101423.47;5043015;28;20029;-60
2023/06/24 13:53:41;;;;;;;1.30;0.20;;;;;;;30.59;85.04;101426.50;5049041;28;20029;-57
2023/06/24 13:56:06;;;;;;;0.20;0.20;;;;;;;30.69;86.21;101421.94;5050837;28;20038;-57
2023/06/24 13:58:32;;;;;;;0.95;0.30;;;;;;;31.13;86.37;101418.56;5047817;28;20063;-59
2023/06/24 14:00:57;;;;;;;0.57;0.47;;;;;;;31.20;87.11;101418.16;5044266;28;20053;-61
2023/06/24 14:03:22;;;;;;;3.00;0.38;;;;;;;31.05;87.41;101411.06;5051912;28;20033;-61
2023/06/24 14:05:48;;;;;;;0.35;0.32;;;;;;;30.65;86.69;101408.84;5045085;28;20028;-59
2023/06/24 14:08:13;;;;;;;1.00;0.35;;;;;;;29.98;88.25;101402.97;5042754;28;20144;-57
2023/06/24 14:10:38;;;;;;;0.40;0.40;;;;;;;30.01;88.96;101407.84;5042915;28;20029;-56
2023/06/24 14:13:05;;;;;;;0.35;0.35;;;;;;;30.03;87.58;101394.69;5038300;28;20026;-58
2023/06/24 14:15:30;;;;;;;3.20;0.30;;;;;;;30.02;88.57;101400.44;5030298;28;20036;-53
2023/06/24 14:17:56;;;;;;;2.20;0.20;;;;;;;30.37;87.04;101402.56;5042557;28;20024;-58
2023/06/24 14:20:21;;;;;;;0.38;0.20;;;;;;;30.45;85.99;101395.56;5037321;28;20166;-57
2023/06/24 14:22:47;;;;;;;0.88;0.40;;;;;;;30.53;86.25;101388.59;5032141;28;20037;-53
2023/06/24 14:25:12;;;;;;;0.85;0.20;;;;;;;30.77;84.07;101385.63;5033204;28;20124;-54
2023/06/24 14:27:37;;;;;;;2.47;0.82;;;;;;;31.41;83.49;101386.47;5042821;28;20044;-51
2023/06/24 14:30:05;;;;;;;2.03;0.20;;;;;;;32.25;83.34;101381.38;5034284;28;20021;-50
2023/06/24 14:32:30;;;;;;;1.65;0.22;;;;;;;32.92;81.33;101374.84;5028595;28;20269;-55
2023/06/24 14:34:56;;;;;;;1.35;0.75;;;;;;;33.42;80.30;101377.13;5039751;28;20402;-60
2023/06/24 14:37:21;;;;;;;0.10;0.10;;;;;;;33.47;78.64;101373.41;5038851;28;20021;-60
2023/06/24 14:39:46;;;;;;;0.68;0.68;;;;;;;32.92;79.17;101377.56;5041224;28;20071;-58
2023/06/24 14:42:12;;;;;;;0.22;0.20;;;;;;;32.37;79.40;101379.66;5037689;28;20075;-59
2023/06/24 14:44:37;;;;;;;0.63;0.25;;;;;;;32.52;79.75;101374.88;5042545;28;20037;-55
2023/06/24 14:47:03;;;;;;;0.73;0.70;;;;;;;32.58;79.63;101363.44;5035347;28;20394;-55
2023/06/24 14:49:28;;;;;;;1.67;0.13;;;;;;;32.36;80.08;101358.00;5036644;28;20291;-59
2023/06/24 14:51:54;;;;;;;1.35;0.65;;;;;;;32.23;81.58;101361.69;5047725;28;20549;-56
2023/06/24 14:54:19;;;;;;;0.73;0.27;;;;;;;32.21;80.55;101361.19;5035514;28;20041;-51
2023/06/24 14:56:45;;;;;;;2.80;0.30;;;;;;;32.24;80.34;101364.09;5035435;28;20281;-57
2023/06/24 14:59:10;;;;;;;1.33;0.30;;;;;;;32.22;79.13;101357.31;5033110;28;20033;-50
2023/06/24 15:01:36;;;;;;;0.20;0.20;;;;;;;31.85;77.02;101359.34;5030554;28;20064;-52
2023/06/24 15:04:01;;;;;;;1.17;0.20;;;;;;;31.83;77.29;101358.84;5033993;28;20041;-58
2023/06/24 15:06:27;;;;;;;1.88;0.77;;;;;;;31.83;77.18;101358.84;5036118;28;20064;-58
2023/06/24 15:08:52;;;;;;;3.17;0.50;;;;;;;31.72;77.34;101355.56;5032786;28;20347;-58
2023/06/24 15:11:17;;;;;;;0.32;0.20;;;;;;;31.53;77.40;101355.78;5030478;28;20029;-54
2023/06/24 15:13:43;;;;;;;0.50;0.50;;;;;;;31.68;79.63;101346.38;5034676;28;20116;-56
2023/06/24 15:16:08;;;;;;;0.52;0.52;;;;;;;31.54;78.07;101343.69;5033907;28;20070;-52
2023/06/24 15:18:33;;;;;;;1.15;0.20;;;;;;;31.65;78.51;101333.25;5031371;28;20104;-55
2023/06/24 15:20:58;;;;;;;0.40;0.20;;;;;;;31.75;79.43;101335.75;5037609;28;20041;-57
2023/06/24 15:23:24;;;;;;;2.28;0.40;;;;;;;31.65;78.64;101342.31;5037589;28;20361;-58
2023/06/24 15:25:50;;;;;;;1.75;0.40;;;;;;;31.47;77.52;101346.03;5035614;28;20491;-57
2023/06/24 15:28:15;;;;;;;0.45;0.43;;;;;;;31.28;77.38;101340.72;5047892;28;20772;-58
2023/06/24 15:30:40;;;;;;;0.50;0.38;;;;;;;31.28;79.07;101341.53;5031306;28;20038;-58
2023/06/24 15:33:06;;;;;;;0.65;0.57;;;;;;;31.50;78.04;101337.22;5038529;28;20044;-57
2023/06/24 15:35:31;;;;;;;0.47;0.30;;;;;;;31.62;78.25;101336.63;5037996;28;20030;-55
2023/06/24 15:37:56;;;;;;;0.70;0.28;;;;;;;31.71;77.20;101332.03;5038083;28;20029;-56
2023/06/24 15:40:22;;;;;;;0.88;0.43;;;;;;;31.61;76.82;101329.53;5035658;28;20037;-57
2023/06/24 15:42:47;;;;;;;2.90;1.00;;;;;;;31.42;77.31;101329.75;5037292;28;20037;-59
2023/06/24 15:45:12;;;;;;;1.10;0.75;;;;;;;31.74;77.10;101328.66;5033039;28;20290;-59
2023/06/24 15:47:38;;;;;;;0.60;0.60;;;;;;;32.19;76.69;101320.34;5043602;28;20067;-50
2023/06/24 15:50:04;;;;;;;1.95;0.52;;;;;;;32.50;75.59;101316.75;5028728;28;20036;-51
2023/06/24 15:52:29;;;;;;;1.15;0.45;;;;;;;32.73;74.47;101317.44;5030493;28;20065;-56
2023/06/24 15:54:54;;;;;;;1.07;0.63;;;;;;;32.85;75.41;101306.63;5024897;28;20025;-54
2023/06/24 15:57:19;;;;;;;0.93;0.60;;;;;;;32.65;75.52;101313.56;5021434;28;20283;-56
2023/06/24 15:59:45;;;;;;;2.07;0.50;;;;;;;32.40;75.46;101311.53;5033849;28;20028;-56
2023/06/24 16:02:10;;;;;;;3.13;0.80;;;;;;;32.54;76.05;101306.75;5027554;28;20685;-54
2023/06/24 16:04:35;;;;;;;0.60;0.47;;;;;;;33.06;74.41;101298.59;5025237;28;20569;-57
2023/06/24 16:07:01;;;;;;;0.52;0.50;;;;;;;32.58;75.13;101291.28;5027155;28;20059;-58
2023/06/24 16:09:26;;;;;;;0.38;0.38;;;;;;;31.97;76.25;101293.81;5025966;28;20077;-58
2023/06/24 16:11:51;;;;;;;2.92;0.50;;;;;;;31.77;77.10;101297.88;5028646;28;20116;-55
2023/06/24 16:14:17;;;;;;;1.00;1.00;;;;;;;31.89;77.55;101289.88;5026531;28;20025;-56
2023/06/24 16:16:42;;;;;;;1.75;0.70;;;;;;;31.40;77.39;101285.41;5034371;28;20059;-59
2023/06/24 16:19:07;;;;;;;0.83;0.70;;;;;;;31.22;80.89;101290.72;5033024;28;20036;-57
2023/06/24 16:21:33;;;;;;;3.13;1.20;;;;;;;31.75;79.81;101286.41;5031124;28;20305;-59
2023/06/24 16:23:58;;;;;;;1.98;0.55;;;;;;;31.83;78.08;101291.13;5028592;28;20407;-55
2023/06/24 16:26:24;;;;;;;1.73;1.42;;;;;;;32.14;77.71;101279.34;5028847;28;20037;-52
2023/06/24 16:28:50;;;;;;;0.55;0.47;;;;;;;32.46;78.49;101286.38;5026155;28;20033;-58
2023/06/24 16:31:16;;;;;;;1.05;0.38;;;;;;;32.20;77.71;101280.03;5035977;28;20025;-58
2023/06/24 16:33:41;;;;;;;1.70;0.63;;;;;;;32.08;77.21;101278.66;5032777;28;20043;-58
2023/06/24 16:36:06;;;;;;;0.68;0.68;;;;;;;32.23;76.90;101269.22;5034068;28;20388;-58
2023/06/24 16:38:32;;;;;;;1.13;0.50;;;;;;;32.31;75.82;101268.41;5033988;28;20087;-57
2023/06/24 16:40:57;;;;;;;0.40;0.40;;;;;;;32.13;75.76;101264.81;5033593;28;20036;-58
2023/06/24 16:43:22;;;;;;;0.77;0.40;;;;;;;32.42;74.73;101266.19;5031402;28;20075;-58
2023/06/24 16:45:47;;;;;;;0.70;0.60;;;;;;;32.10;74.89;101264.66;5028131;28;20654;-57
2023/06/24 16:48:13;;;;;;;0.43;0.23;;;;;;;32.27;76.18;101266.63;5032285;28;20470;-56
2023/06/24 16:50:38;;;;;;;0.82;0.55;;;;;;;32.41;74.92;101261.03;5021407;28;20287;-56
2023/06/24 16:53:03;;;;;;;1.07;0.60;;;;;;;32.43;74.54;101253.28;5027343;28;20032;-56
2023/06/24 16:55:29;;;;;;;4.85;1.25;;;;;;;32.19;74.69;101250.97;5027121;28;20591;-60
2023/06/24 16:57:54;;;;;;;0.40;0.32;;;;;;;32.04;74.57;101249.44;5026109;28;20049;-59
2023/06/24 17:00:19;;;;;;;1.40;0.50;;;;;;;31.92;74.52;101248.09;5028188;28;20042;-57
2023/06/24 17:02:45;;;;;;;0.73;0.73;;;;;;;32.05;75.15;101251.09;5035245;28;20838;-57
2023/06/24 17:05:10;;;;;;;0.30;0.30;;;;;;;32.52;73.63;101243.94;5037738;28;20032;-61
2023/06/24 17:07:35;;;;;;;0.97;0.27;;;;;;;32.59;72.05;101247.03;5036318;28;20163;-59
2023/06/24 17:10:01;;;;;;;0.50;0.50;;;;;;;32.59;70.90;101246.22;5033898;28;20274;-51
2023/06/24 17:12:26;;;;;;;0.68;0.50;;;;;;;32.61;70.88;101243.16;5035334;28;20278;-59
2023/06/24 17:14:51;;;;;;;0.30;0.30;;;;;;;32.33;71.05;101227.75;5029686;28;20885;-57
2023/06/24 17:17:17;;;;;;;0.40;0.30;;;;;;;32.43;71.21;101236.81;5033468;28;20021;-56
2023/06/24 17:19:42;;;;;;;0.57;0.32;;;;;;;32.50;71.58;101235.25;5028667;28;20763;-56
2023/06/24 17:22:08;;;;;;;1.43;0.40;;;;;;;32.75;70.68;101232.81;5031173;28;20175;-56
2023/06/24 17:24:34;;;;;;;0.45;0.43;;;;;;;32.90;70.25;101228.78;5036100;28;20332;-59
2023/06/24 17:26:59;;;;;;;1.17;0.40;;;;;;;33.07;69.91;101217.81;5023368;28;20132;-60
2023/06/24 17:29:24;;;;;;;1.07;0.30;;;;;;;33.23;69.26;101218.91;5031222;28;20038;-60
2023/06/24 17:31:50;;;;;;;0.30;0.30;;;;;;;34.19;68.01;101215.00;5031040;28;20290;-57
2023/06/24 17:34:15;;;;;;;0.98;0.40;;;;;;;34.87;64.84;101214.81;5030163;28;20282;-58
2023/06/24 17:36:40;;;;;;;2.53;0.47;;;;;;;34.67;64.08;101210.94;5036507;28;20513;-54
2023/06/24 17:39:05;;;;;;;0.70;0.55;;;;;;;35.19;63.12;101207.72;5032336;28;20029;-58
2023/06/24 17:41:31;;;;;;;1.13;0.40;;;;;;;35.26;61.67;101207.94;5032484;28;20363;-56
2023/06/24 17:43:56;;;;;;;1.42;0.70;;;;;;;34.70;62.24;101218.53;5032274;28;20351;-51
2023/06/24 17:46:21;;;;;;;1.40;0.90;;;;;;;34.55;62.87;101211.66;5028190;28;20045;-57
2023/06/24 17:48:47;;;;;;;1.90;0.63;;;;;;;34.19;64.14;101215.00;5037142;28;20449;-57
2023/06/24 17:51:12;;;;;;;0.40;0.40;;;;;;;33.81;66.10;101215.81;5033556;28;20288;-58
2023/06/24 17:53:37;;;;;;;0.75;0.70;;;;;;;33.61;66.66;101215.44;5036123;28;20070;-56
2023/06/24 17:56:03;;;;;;;1.55;0.30;;;;;;;34.25;66.56;101208.94;5034372;28;20061;-58
2023/06/24 17:58:28;;;;;;;0.35;0.32;;;;;;;34.75;65.63;101207.31;5033145;28;20024;-57
2023/06/24 18:00:53;;;;;;;0.70;0.70;;;;;;;34.86;65.08;101205.75;5032819;28;20916;-57
2023/06/24 18:03:19;;;;;;;1.73;0.22;;;;;;;34.35;65.02;101207.75;5035123;28;20393;-55
2023/06/24 18:05:44;;;;;;;2.65;0.70;;;;;;;33.66;65.28;101203.44;5024349;28;20025;-55
2023/06/24 18:08:09;;;;;;;0.50;0.47;;;;;;;33.33;66.55;101195.78;5035439;28;20070;-56
2023/06/24 18:10:36;;;;;;;2.15;0.47;;;;;;;33.28;66.50;101203.38;5030108;28;20285;-51
2023/06/24 18:13:02;;;;;;;2.63;1.13;;;;;;;32.91;64.88;101198.25;5034196;28;20033;-59
2023/06/24 18:15:28;;;;;;;0.60;0.60;;;;;;;32.46;67.60;101208.72;5034396;28;20473;-55
2023/06/24 18:17:53;;;;;;;0.47;0.30;;;;;;;32.04;69.56;101202.81;5035268;28;20227;-51
2023/06/24 18:20:18;;;;;;;0.77;0.70;;;;;;;31.57;69.89;101199.72;5032641;28;20279;-53
2023/06/24 18:22:43;;;;;;;2.15;0.30;;;;;;;31.39;70.63;101199.69;5030225;28;20723;-55
2023/06/24 18:25:09;;;;;;;0.37;0.30;;;;;;;31.23;71.20;101206.63;5031235;28;20112;-55
2023/06/24 18:27:34;;;;;;;0.60;0.60;;;;;;;30.91;72.39;101199.50;5038177;28;20635;-51
2023/06/24 18:29:59;;;;;;;1.25;0.40;;;;;;;30.77;72.85;101208.53;5029304;28;20037;-49
2023/06/24 18:32:25;;;;;;;0.75;0.47;;;;;;;30.74;72.86;101202.88;5025707;28;20125;-57
2023/06/24 18:34:50;;;;;;;0.82;0.50;;;;;;;30.65;73.11;101200.88;5039046;28;20092;-53
2023/06/24 18:37:16;;;;;;;1.00;0.50;;;;;;;30.50;73.54;101205.88;5029442;28;20061;-51
2023/06/24 18:39:43;;;;;;;1.43;0.63;;;;;;;30.45;74.57;101206.81;5037344;28;20027;-54
2023/06/24 18:42:08;;;;;;;1.77;0.60;;;;;;;30.42;74.99;101201.94;5034623;28;20302;-51
2023/06/24 18:44:34;;;;;;;0.50;0.50;;;;;;;30.39;75.62;101203.38;5038694;28;20071;-52
2023/06/24 18:46:59;;;;;;;2.38;0.68;;;;;;;30.28;77.08;101201.97;5038263;28;20068;-53
2023/06/24 18:49:24;;;;;;;1.40;0.55;;;;;;;30.43;76.56;101192.63;5031827;28;20099;-50
2023/06/24 18:51:50;;;;;;;0.88;0.88;;;;;;;30.36;76.60;101203.16;5030805;28;20087;-49
2023/06/24 18:54:16;;;;;;;1.25;0.93;;;;;;;30.36;76.85;101197.69;5030816;28;20035;-50
2023/06/24 18:56:43;;;;;;;0.82;0.82;;;;;;;30.24;77.36;101200.16;5036482;28;20044;-55
2023/06/24 18:59:08;;;;;;;0.88;0.88;;;;;;;30.09;77.85;101193.88;5037806;28;20041;-51
2023/06/24 19:01:33;;;;;;;0.90;0.88;;;;;;;30.02;78.25;101190.72;5035208;28;20064;-47
2023/06/24 19:03:59;;;;;;;0.30;0.20;;;;;;;30.04;77.72;101190.44;5034752;28;20029;-49
2023/06/24 19:06:24;;;;;;;0.65;0.50;;;;;;;29.95;78.36;101193.09;5039104;28;20036;-50
2023/06/24 19:08:52;;;;;;;1.38;0.75;;;;;;;29.81;79.08;101198.53;5038011;28;20472;-52
2023/06/24 19:11:24;;;;;;;0.80;0.77;;;;;;;29.75;79.61;101192.34;5035074;28;20070;-48
2023/06/24 19:13:50;;;;;;;2.30;0.70;;;;;;;29.79;79.46;101192.56;5023141;28;20028;-53
2023/06/24 19:16:19;;;;;;;1.10;1.00;;;;;;;29.75;80.22;101178.69;5040507;28;20174;-52
2023/06/24 19:18:45;;;;;;;4.45;1.13;;;;;;;29.66;80.85;101188.72;5033496;28;20032;-52
2023/06/24 19:21:11;;;;;;;1.17;1.05;;;;;;;29.41;82.70;101186.44;5036168;28;20037;-52
2023/06/24 19:23:36;;;;;;;0.85;0.82;;;;;;;29.22;83.57;101181.81;5039463;28;20119;-51
2023/06/24 19:26:02;;;;;;;1.27;0.80;;;;;;;29.22;83.65;101187.28;5041357;28;20132;-51
2023/06/24 19:28:29;;;;;;;1.63;0.82;;;;;;;29.06;84.14;101189.47;5036991;28;20029;-52
2023/06/24 19:30:54;;;;;;;1.00;1.00;;;;;;;29.08;84.94;101189.97;5040427;28;20499;-53
2023/06/24 19:33:20;;;;;;;1.85;0.77;;;;;;;29.07;85.41;101182.91;5030161;28;20029;-52
2023/06/24 19:35:45;;;;;;;3.88;1.30;;;;;;;28.87;86.93;101185.94;5038319;28;20025;-53
2023/06/24 19:38:10;;;;;;;1.33;1.23;;;;;;;28.67;88.07;101187.06;5039275;28;20043;-55
2023/06/24 19:40:35;;;;;;;3.15;1.88;;;;;;;28.45;89.64;101187.66;5032075;28;20395;-54
2023/06/24 19:43:01;;;;;;;2.22;2.00;;;;;;;28.52;89.44;101187.28;5035771;28;20032;-49
2023/06/24 19:45:26;;;;;;;1.70;1.10;;;;;;;28.42;89.59;101186.31;5032903;28;20032;-51
2023/06/24 19:47:53;;;;;;;1.15;1.10;;;;;;;28.30;90.33;101180.47;5034739;28;20493;-48
2023/06/24 19:50:18;;;;;;;1.75;1.35;;;;;;;28.37;89.43;101178.19;5036510;28;20029;-49
2023/06/24 19:52:44;;;;;;;1.10;0.80;;;;;;;28.35;89.35;101174.94;5038226;28;20036;-53
2023/06/24 19:55:09;;;;;;;2.10;1.52;;;;;;;28.11;90.28;101180.41;5033236;28;20626;-52
2023/06/24 19:57:39;;;;;;;2.45;1.27;;;;;;;27.95;91.16;101174.34;5022635;28;20430;-52
2023/06/24 20:00:08;;;;;;;2.10;1.40;;;;;;;27.77;92.03;101181.34;5033505;28;20382;-50
2023/06/24 20:02:34;;;;;;;0.80;0.65;;;;;;;27.58;93.20;101175.84;5035477;28;20021;-52
2023/06/24 20:05:00;;;;;;;2.92;1.52;;;;;;;27.47;93.86;101177.03;5033946;28;21718;-49
2023/06/24 20:07:25;;;;;;;4.32;1.08;;;;;;;27.45;94.04;101178.44;5032728;28;20033;-50
2023/06/24 20:09:50;;;;;;;1.20;1.17;;;;;;;27.33;93.61;101179.59;5034028;28;20040;-50
2023/06/24 20:12:16;;;;;;;2.00;1.02;;;;;;;27.27;94.80;101175.31;5031686;28;20029;-51
2023/06/24 20:14:41;;;;;;;2.78;0.77;;;;;;;27.27;94.69;101175.31;5039278;28;20035;-50
2023/06/24 20:17:07;;;;;;;0.57;0.52;;;;;;;27.33;94.52;101173.38;5044414;28;20025;-50
2023/06/24 20:19:32;;;;;;;2.00;1.08;;;;;;;27.41;93.75;101172.72;5035741;28;20033;-48
2023/06/24 20:21:58;;;;;;;2.25;1.70;;;;;;;27.36;94.31;101170.91;5034906;28;20032;-49
2023/06/24 20:24:23;;;;;;;2.15;1.00;;;;;;;27.10;95.53;101172.97;5044107;28;20442;-50
2023/06/24 20:26:48;;;;;;;1.83;0.98;;;;;;;27.13;95.23;101169.72;5039382;28;20063;-50
2023/06/24 20:29:14;;;;;;;1.42;1.33;;;;;;;27.10;94.75;101172.16;5033071;28;20439;-53
2023/06/24 20:31:39;;;;;;;1.65;0.85;;;;;;;26.95;97.74;101173.09;5032475;28;20087;-52
2023/06/24 20:34:04;;;;;;;1.75;1.20;;;;;;;26.60;97.24;101171.47;5037844;28;20029;-53
2023/06/24 20:36:30;;;;;;;0.80;0.80;;;;;;;25.97;100.00;101182.88;5034767;28;20036;-50
2023/06/24 20:38:55;;;;;;;1.20;0.80;;;;;;;25.63;100.00;101180.75;5035512;28;20028;-50
2023/06/24 20:41:27;;;;;;;0.65;0.65;;;;;;;25.51;100.00;101183.78;5036463;28;20374;-47
2023/06/24 20:43:55;;;;;;;1.27;0.95;;;;;;;25.46;100.00;101175.66;5042769;28;20468;-54
2023/06/24 20:46:21;;;;;;;0.82;0.60;;;;;;;25.44;100.00;101178.63;5033579;28;20536;-48
2023/06/24 20:48:46;;;;;;;0.65;0.63;;;;;;;25.30;100.00;101183.00;5033284;28;20036;-51
2023/06/24 20:51:14;;;;;;;1.98;0.90;;;;;;;25.19;100.00;101181.38;5037669;28;20102;-47
2023/06/24 20:53:41;;;;;;;0.63;0.63;;;;;;;25.09;100.00;101178.63;5033150;28;20044;-53
2023/06/24 20:56:07;;;;;;;0.85;0.85;;;;;;;24.95;100.00;101183.78;5033840;28;20121;-52
2023/06/24 20:58:32;;;;;;;0.80;0.68;;;;;;;24.79;100.00;101181.06;5026529;28;20040;-50
2023/06/24 21:00:58;;;;;;;1.92;0.80;;;;;;;24.81;100.00;101183.50;5033121;28;20068;-51
2023/06/24 21:03:23;;;;;;;0.32;0.32;;;;;;;24.75;100.00;101184.56;5034461;28;20029;-50
2023/06/24 21:05:48;;;;;;;1.08;0.50;;;;;;;24.57;100.00;101180.47;5035197;28;20110;-53
2023/06/24 21:08:13;;;;;;;1.95;0.70;;;;;;;24.53;100.00;101177.47;5032254;28;20028;-51
2023/06/24 21:10:39;;;;;;;0.52;0.52;;;;;;;24.52;100.00;101180.44;5029025;28;20071;-50
2023/06/24 21:13:04;;;;;;;1.05;0.63;;;;;;;24.53;100.00;101172.06;5037198;28;20029;-48
2023/06/24 21:15:29;;;;;;;1.10;0.60;;;;;;;24.44;100.00;101164.69;5027134;28;20781;-50
2023/06/24 21:17:55;;;;;;;1.38;0.77;;;;;;;24.31;100.00;101158.69;5030949;28;20111;-47
2023/06/24 21:20:20;;;;;;;1.23;0.70;;;;;;;24.23;100.00;101156.50;5026354;28;20115;-52
2023/06/24 21:22:46;;;;;;;1.55;0.68;;;;;;;24.14;100.00;101158.91;5032232;28;20033;-52
2023/06/24 21:25:11;;;;;;;1.30;0.75;;;;;;;24.10;100.00;101155.09;5031094;28;20040;-51
2023/06/24 21:27:36;;;;;;;0.95;0.77;;;;;;;24.06;100.00;101151.28;5043772;28;20029;-50
2023/06/24 21:30:02;;;;;;;1.58;0.98;;;;;;;24.08;100.00;101149.13;5035558;28;20028;-52
2023/06/24 21:32:27;;;;;;;2.80;0.50;;;;;;;24.00;100.00;101149.63;5030170;28;20029;-50
2023/06/24 21:34:52;;;;;;;0.47;0.47;;;;;;;23.94;100.00;101150.69;5032456;28;20037;-51
2023/06/24 21:37:18;;;;;;;0.80;0.73;;;;;;;23.93;100.00;101151.75;5034936;28;20024;-48
2023/06/24 21:39:43;;;;;;;1.85;0.65;;;;;;;23.84;100.00;101148.75;5036853;28;20033;-53
2023/06/24 21:42:08;;;;;;;0.47;0.32;;;;;;;23.80;100.00;101149.53;5036663;28;20052;-55
2023/06/24 21:44:34;;;;;;;0.80;0.68;;;;;;;23.80;100.00;101144.97;5037602;28;20078;-52
2023/06/24 21:46:59;;;;;;;0.93;0.80;;;;;;;23.78;100.00;101138.97;5030361;28;20044;-52
2023/06/24 21:49:24;;;;;;;2.63;0.38;;;;;;;23.70;100.00;101139.47;5038527;28;20068;-52
2023/06/24 21:51:53;;;;;;;1.13;0.50;;;;;;;23.59;100.00;101143.97;5040477;28;20413;-48
2023/06/24 21:54:18;;;;;;;0.75;0.57;;;;;;;23.57;100.00;101153.44;5041850;28;20127;-48
2023/06/24 21:56:43;;;;;;;0.77;0.77;;;;;;;23.51;100.00;101147.19;5037110;28;20116;-50
2023/06/24 21:59:09;;;;;;;1.30;1.05;;;;;;;23.36;100.00;101149.78;5033604;28;20082;-51
2023/06/24 22:01:34;;;;;;;1.00;0.88;;;;;;;23.21;100.00;101139.69;5030366;28;20131;-49
2023/06/24 22:03:59;;;;;;;0.85;0.82;;;;;;;23.07;100.00;101142.00;5036249;28;20099;-46
2023/06/24 22:06:25;;;;;;;1.15;1.15;;;;;;;23.04;100.00;101139.81;5030254;28;20478;-46
2023/06/24 22:08:50;;;;;;;2.28;0.68;;;;;;;23.04;100.00;101147.94;5032960;28;20030;-52
2023/06/24 22:11:15;;;;;;;1.05;0.73;;;;;;;23.03;100.00;101157.94;5028578;28;20030;-48
2023/06/24 22:13:41;;;;;;;0.75;0.73;;;;;;;22.92;100.00;101147.25;5039437;28;20337;-53
2023/06/24 22:16:10;;;;;;;1.40;1.00;;;;;;;22.82;100.00;101139.84;5035925;28;20045;-50
2023/06/24 22:18:35;;;;;;;0.70;0.70;;;;;;;22.70;100.00;101137.31;5033013;28;20029;-52
2023/06/24 22:21:00;;;;;;;1.02;0.68;;;;;;;22.43;100.00;101138.16;5035014;28;20059;-52
2023/06/24 22:23:26;;;;;;;1.90;0.90;;;;;;;22.20;100.00;101135.72;5026152;28;20115;-48
2023/06/24 22:25:51;;;;;;;1.23;0.85;;;;;;;22.08;100.00;101130.44;5033866;28;20025;-46
2023/06/24 22:28:16;;;;;;;1.17;0.52;;;;;;;21.99;100.00;101131.91;5040750;28;20032;-47
2023/06/24 22:30:42;;;;;;;1.02;0.60;;;;;;;21.97;100.00;101124.09;5031338;28;20056;-50
2023/06/24 22:33:07;;;;;;;0.65;0.65;;;;;;;22.02;100.00;101123.34;5027209;28;20448;-51
2023/06/24 22:35:32;;;;;;;0.77;0.70;;;;;;;22.12;100.00;101114.53;5028591;28;20396;-47
2023/06/24 22:37:58;;;;;;;1.70;0.85;;;;;;;22.15;100.00;101116.72;5027323;28;20025;-49
2023/06/24 22:40:24;;;;;;;1.65;1.08;;;;;;;22.13;100.00;101111.59;5030329;28;20042;-48
2023/06/24 22:42:49;;;;;;;0.65;0.47;;;;;;;22.07;100.00;101117.16;5037755;28;20057;-51
2023/06/24 22:45:15;;;;;;;0.40;0.32;;;;;;;22.06;100.00;101116.34;5037329;28;20566;-46
2023/06/24 22:47:40;;;;;;;0.63;0.63;;;;;;;21.85;100.00;101128.78;5035668;28;20636;-54
2023/06/24 22:50:08;;;;;;;1.23;0.98;;;;;;;21.53;100.00;101125.94;5033248;28;20025;-49
2023/06/24 22:52:33;;;;;;;0.98;0.98;;;;;;;21.02;100.00;101133.22;5035962;28;20123;-51
2023/06/24 22:54:59;;;;;;;3.17;1.15;;;;;;;20.66;100.00;101138.81;5034166;28;20108;-51
2023/06/24 22:57:24;;;;;;;0.93;0.85;;;;;;;20.39;100.00;101138.53;5035534;28;20918;-50
2023/06/24 22:59:49;;;;;;;1.75;0.75;;;;;;;20.23;100.00;101126.66;5037215;28;20123;-50
2023/06/24 23:02:15;;;;;;;1.65;1.08;;;;;;;20.20;100.00;101129.81;5039810;28;20677;-47
2023/06/24 23:04:40;;;;;;;2.38;0.90;;;;;;;19.91;100.00;101128.16;5034429;28;20033;-52
2023/06/24 23:07:06;;;;;;;6.05;1.00;;;;;;;19.83;100.00;101130.16;5033991;28;20421;-51
2023/06/24 23:09:32;;;;;;;1.10;0.73;;;;;;;19.94;100.00;101133.06;5034256;28;20029;-48
2023/06/24 23:11:57;;;;;;;0.65;0.20;;;;;;;19.80;100.00;101136.00;5025968;28;20674;-46
2023/06/24 23:14:23;;;;;;;0.75;0.75;;;;;;;19.58;100.00;101133.06;5027925;28;20079;-51
2023/06/24 23:16:50;;;;;;;1.05;1.02;;;;;;;19.48;100.00;101140.09;5035830;28;20451;-47
2023/06/24 23:19:15;;;;;;;1.73;1.33;;;;;;;19.22;100.00;101149.44;5035977;28;20445;-50
2023/06/24 23:21:41;;;;;;;0.85;0.85;;;;;;;19.46;100.00;101139.50;5035457;28;20033;-52
2023/06/24 23:24:07;;;;;;;4.05;0.77;;;;;;;19.40;100.00;101134.00;5031354;28;20037;-48
2023/06/24 23:26:36;;;;;;;2.05;0.93;;;;;;;19.27;100.00;101139.63;5037501;28;20322;-48
2023/06/24 23:29:08;;;;;;;3.50;1.35;;;;;;;19.17;100.00;101150.13;5034350;28;20032;-49
2023/06/24 23:31:36;;;;;;;0.95;0.65;;;;;;;19.14;100.00;101142.53;5033955;28;20040;-47
2023/06/24 23:34:03;;;;;;;1.02;0.80;;;;;;;19.14;100.00;101139.84;5033784;28;20992;-49
2023/06/24 23:36:29;;;;;;;3.50;1.48;;;;;;;19.16;100.00;101129.69;5032340;28;20043;-48
2023/06/24 23:38:54;;;;;;;0.50;0.50;;;;;;;19.09;100.00;101123.59;5034587;28;20369;-46
2023/06/24 23:41:21;;;;;;;3.28;1.02;;;;;;;19.04;100.00;101126.97;5028921;28;20041;-48
2023/06/24 23:43:47;;;;;;;1.15;1.08;;;;;;;18.92;100.00;101131.50;5040245;28;20355;-49
2023/06/24 23:46:12;;;;;;;1.27;1.10;;;;;;;18.83;100.00;101122.97;5035222;28;20045;-48
2023/06/24 23:48:37;;;;;;;0.80;0.80;;;;;;;18.82;100.00;101123.16;5039115;28;20060;-48
2023/06/24 23:51:03;;;;;;;0.85;0.85;;;;;;;18.80;100.00;101120.72;5041761;28;20413;-46
2023/06/24 23:53:28;;;;;;;1.15;1.05;;;;;;;18.71;100.00;101114.81;5032870;28;20048;-48
2023/06/24 23:55:53;;;;;;;2.15;0.80;;;;;;;18.62;100.00;101112.72;5036937;28;20029;-50
2023/06/24 23:58:19;;;;;;;2.67;0.88;;;;;;;18.50;100.00;101105.41;5039358;28;20281;-51
